createdAt,value
2018-09-05T00:01:23.300Z,23.50
2018-09-05T00:03:51.646Z,25.10
2018-09-05T00:06:19.808Z,25.53
2018-09-05T00:08:48.072Z,26.10
2018-09-05T00:11:16.156Z,23.00
2018-09-05T00:13:44.296Z,24.30
2018-09-05T00:16:12.371Z,27.27
2018-09-05T00:18:40.441Z,25.40
2018-09-05T00:21:08.515Z,24.70
2018-09-05T00:23:36.575Z,24.67
2018-09-05T00:26:04.931Z,25.07
2018-09-05T00:28:33.033Z,26.00
2018-09-05T00:31:01.140Z,29.17
2018-09-05T00:33:29.216Z,27.57
2018-09-05T00:35:57.325Z,29.07
2018-09-05T00:38:25.486Z,28.23
2018-09-05T00:40:53.884Z,26.50
2018-09-05T00:43:21.957Z,27.17
2018-09-05T00:45:50.101Z,27.57
2018-09-05T00:48:18.233Z,26.27
2018-09-05T00:50:46.259Z,25.90
2018-09-05T00:53:14.303Z,24.23
2018-09-05T00:55:42.392Z,25.13
2018-09-05T00:58:10.469Z,25.63
2018-09-05T01:00:38.618Z,24.53
2018-09-05T01:03:06.722Z,26.17
2018-09-05T01:05:34.798Z,26.63
2018-09-05T01:08:02.877Z,26.40
2018-09-05T01:10:30.950Z,24.87
2018-09-05T01:12:59.053Z,24.93
2018-09-05T01:15:27.116Z,24.03
2018-09-05T01:17:55.223Z,25.77
2018-09-05T01:20:23.621Z,25.47
2018-09-05T01:22:51.678Z,24.30
2018-09-05T01:25:19.749Z,24.60
2018-09-05T01:27:47.847Z,25.63
2018-09-05T01:30:15.962Z,24.63
2018-09-05T01:32:44.070Z,24.20
2018-09-05T01:35:12.099Z,24.77
2018-09-05T01:37:40.160Z,22.60
2018-09-05T01:40:08.216Z,25.27
2018-09-05T01:42:36.242Z,25.60
2018-09-05T01:45:04.356Z,24.57
2018-09-05T01:47:32.428Z,25.10
2018-09-05T01:50:00.512Z,24.53
2018-09-05T01:52:28.565Z,25.13
2018-09-05T01:54:56.656Z,24.73
2018-09-05T01:57:24.754Z,25.83
2018-09-05T01:59:52.860Z,24.70
2018-09-05T02:02:20.940Z,24.47
2018-09-05T02:04:49.066Z,25.57
2018-09-05T02:07:17.173Z,26.00
2018-09-05T02:09:45.265Z,23.80
2018-09-05T02:12:13.581Z,26.20
2018-09-05T02:14:41.668Z,26.20
2018-09-05T02:17:09.748Z,26.67
2018-09-05T02:19:37.818Z,23.90
2018-09-05T02:22:05.874Z,24.03
2018-09-05T02:24:34.034Z,25.80
2018-09-05T02:27:02.136Z,25.07
2018-09-05T02:29:30.269Z,24.03
2018-09-05T02:31:58.364Z,24.40
2018-09-05T02:34:26.438Z,25.47
2018-09-05T02:36:54.673Z,25.30
2018-09-05T02:39:22.792Z,24.70
2018-09-05T02:41:50.910Z,23.73
2018-09-05T02:44:22.165Z,25.97
2018-09-05T02:46:50.745Z,24.80
2018-09-05T02:49:18.869Z,25.10
2018-09-05T02:51:47.238Z,24.70
2018-09-05T02:54:15.403Z,24.23
2018-09-05T02:56:43.502Z,23.07
2018-09-05T02:59:11.576Z,23.63
2018-09-05T03:01:39.632Z,23.60
2018-09-05T03:04:07.755Z,27.30
2018-09-05T03:06:36.092Z,23.70
2018-09-05T03:09:05.944Z,25.40
2018-09-05T03:11:34.053Z,24.67
2018-09-05T03:14:02.174Z,23.97
2018-09-05T03:16:30.309Z,25.80
2018-09-05T03:18:58.392Z,24.57
2018-09-05T03:21:26.493Z,23.90
2018-09-05T03:23:54.608Z,26.03
2018-09-05T03:26:22.662Z,25.77
2018-09-05T03:28:50.734Z,22.40
2018-09-05T03:31:19.089Z,23.07
2018-09-05T03:33:47.131Z,23.17
2018-09-05T03:36:15.159Z,24.80
2018-09-05T03:38:43.204Z,22.37
2018-09-05T03:41:11.267Z,23.67
2018-09-05T03:43:39.303Z,24.63
2018-09-05T03:46:07.490Z,25.47
2018-09-05T03:48:35.583Z,23.47
2018-09-05T03:51:03.687Z,23.83
2018-09-05T03:53:31.848Z,23.70
2018-09-05T03:56:00.128Z,26.27
2018-09-05T03:58:28.312Z,24.43
2018-09-05T04:00:56.489Z,23.97
2018-09-05T04:03:24.673Z,23.50
2018-09-05T04:05:52.885Z,23.47
2018-09-05T04:08:21.029Z,24.00
2018-09-05T04:10:49.119Z,22.73
2018-09-05T04:13:17.271Z,22.40
2018-09-05T04:15:45.551Z,24.30
2018-09-05T04:18:13.682Z,23.23
2018-09-05T04:20:42.132Z,24.27
2018-09-05T04:23:10.197Z,24.77
2018-09-05T04:25:38.309Z,24.43
2018-09-05T04:28:06.655Z,25.00
2018-09-05T04:30:34.735Z,23.53
2018-09-05T04:33:03.193Z,24.30
2018-09-05T04:35:31.308Z,23.23
2018-09-05T04:37:59.513Z,24.03
2018-09-05T04:40:27.708Z,24.20
2018-09-05T04:42:55.852Z,25.17
2018-09-05T04:45:24.053Z,25.67
2018-09-05T04:47:52.166Z,24.73
2018-09-05T04:50:20.419Z,25.20
2018-09-05T04:52:48.510Z,26.17
2018-09-05T04:55:16.594Z,24.57
2018-09-05T04:57:44.674Z,25.40
2018-09-05T05:00:12.784Z,23.57
2018-09-05T05:02:40.905Z,25.37
2018-09-05T05:05:09.012Z,23.53
2018-09-05T05:07:37.105Z,25.90
2018-09-05T05:10:05.202Z,23.63
2018-09-05T05:12:33.497Z,23.20
2018-09-05T05:15:01.670Z,24.80
2018-09-05T05:17:29.724Z,25.13
2018-09-05T05:19:57.809Z,23.23
2018-09-05T05:22:25.941Z,23.40
2018-09-05T05:24:54.071Z,24.23
2018-09-05T05:27:22.156Z,26.77
2018-09-05T05:29:50.283Z,24.93
2018-09-05T05:32:18.376Z,24.27
2018-09-05T05:34:46.439Z,24.30
2018-09-05T05:37:14.568Z,26.83
2018-09-05T05:39:42.645Z,25.60
2018-09-05T05:42:10.796Z,24.97
2018-09-05T05:44:38.822Z,26.00
2018-09-05T05:47:06.941Z,27.00
2018-09-05T05:49:35.053Z,23.57
2018-09-05T05:52:03.124Z,24.70
2018-09-05T05:54:31.223Z,24.17
2018-09-05T05:56:59.288Z,25.00
2018-09-05T05:59:27.359Z,24.30
2018-09-05T06:01:55.414Z,24.07
2018-09-05T06:04:23.544Z,24.27
2018-09-05T06:06:51.627Z,24.00
2018-09-05T06:09:19.733Z,24.50
2018-09-05T06:11:47.833Z,26.00
2018-09-05T06:14:15.982Z,26.03
2018-09-05T06:16:44.424Z,25.67
2018-09-05T06:19:12.549Z,24.70
2018-09-05T06:21:40.632Z,25.60
2018-09-05T06:24:08.755Z,41.33
2018-09-05T06:26:36.816Z,25.40
2018-09-05T06:29:05.017Z,27.97
2018-09-05T06:31:33.114Z,25.77
2018-09-05T06:34:01.244Z,23.93
2018-09-05T06:36:29.332Z,25.97
2018-09-05T06:38:57.440Z,27.27
2018-09-05T06:41:28.220Z,25.97
2018-09-05T06:43:56.264Z,26.40
2018-09-05T06:46:24.369Z,27.33
2018-09-05T06:48:52.442Z,27.90
2018-09-05T06:51:20.566Z,27.07
2018-09-05T06:53:48.661Z,27.37
2018-09-05T06:56:16.746Z,26.20
2018-09-05T06:58:44.837Z,25.90
2018-09-05T07:01:12.991Z,25.53
2018-09-05T07:03:41.265Z,27.03
2018-09-05T07:06:09.337Z,25.67
2018-09-05T07:08:37.562Z,26.73
2018-09-05T07:11:05.693Z,30.23
2018-09-05T07:13:33.773Z,27.80
2018-09-05T07:16:01.839Z,27.10
2018-09-05T07:18:29.981Z,26.77
2018-09-05T07:21:05.681Z,26.03
2018-09-05T07:23:26.203Z,26.83
2018-09-05T07:25:54.338Z,26.23
2018-09-05T07:28:22.518Z,27.00
2018-09-05T07:30:50.606Z,29.13
2018-09-05T07:33:18.790Z,30.07
2018-09-05T07:35:46.956Z,28.83
2018-09-05T07:38:14.926Z,28.70
2018-09-05T07:40:43.149Z,29.30
2018-09-05T07:43:11.597Z,27.93
2018-09-05T07:45:39.679Z,27.30
2018-09-05T07:48:07.765Z,28.70
2018-09-05T07:50:35.904Z,29.70
2018-09-05T07:53:04.030Z,28.80
2018-09-05T07:55:32.129Z,29.43
2018-09-05T07:58:00.274Z,30.23
2018-09-05T08:00:28.300Z,37.33
2018-09-05T08:02:56.435Z,29.40
2018-09-05T08:05:24.572Z,28.60
2018-09-05T08:07:52.911Z,28.73
2018-09-05T08:11:45.995Z,28.37
2018-09-05T08:14:14.863Z,26.37
2018-09-05T08:16:43.040Z,28.73
2018-09-05T08:19:11.101Z,28.47
2018-09-05T08:21:39.370Z,28.63
2018-09-05T08:24:07.408Z,28.57
2018-09-05T08:26:35.496Z,28.93
2018-09-05T08:29:03.559Z,29.00
2018-09-05T08:31:31.647Z,29.87
2018-09-05T08:33:59.716Z,28.67
2018-09-05T08:36:28.003Z,29.53
2018-09-05T08:38:55.991Z,29.53
2018-09-05T08:41:24.060Z,30.27
2018-09-05T08:43:52.152Z,29.60
2018-09-05T08:46:20.274Z,29.90
2018-09-05T08:48:48.399Z,31.13
2018-09-05T08:51:16.560Z,30.50
2018-09-05T08:53:44.647Z,29.93
2018-09-05T08:56:12.848Z,30.27
2018-09-05T08:58:40.891Z,33.00
2018-09-05T09:01:08.987Z,34.07
2018-09-05T09:03:37.135Z,32.30
2018-09-05T09:06:05.514Z,32.90
2018-09-05T09:08:33.576Z,30.83
2018-09-05T09:11:01.688Z,30.87
2018-09-05T09:13:29.768Z,31.77
2018-09-05T09:15:57.867Z,29.37
2018-09-05T09:18:26.013Z,31.07
2018-09-05T09:20:54.236Z,32.03
2018-09-05T09:23:22.308Z,30.90
2018-09-05T09:25:50.384Z,32.40
2018-09-05T09:28:18.549Z,31.57
2018-09-05T09:30:46.602Z,31.67
2018-09-05T09:33:14.777Z,30.97
2018-09-05T09:35:42.800Z,31.40
2018-09-05T09:38:10.839Z,29.60
2018-09-05T09:40:38.913Z,30.00
2018-09-05T09:43:07.358Z,29.63
2018-09-05T09:45:35.428Z,29.60
2018-09-05T09:48:03.536Z,29.00
2018-09-05T09:50:31.718Z,29.53
2018-09-05T09:52:59.894Z,30.17
2018-09-05T09:55:28.006Z,30.17
2018-09-05T09:57:56.097Z,28.97
2018-09-05T10:00:29.619Z,27.97
2018-09-05T10:03:03.094Z,31.60
2018-09-05T10:05:36.812Z,31.63
2018-09-05T10:08:10.485Z,26.50
2018-09-05T10:10:44.180Z,27.80
2018-09-05T10:13:17.434Z,28.43
2018-09-05T10:15:51.209Z,27.60
2018-09-05T10:18:24.813Z,27.30
2018-09-05T10:20:52.892Z,27.60
2018-09-05T10:23:21.041Z,26.63
2018-09-05T10:25:49.123Z,26.97
2018-09-05T10:28:17.269Z,27.10
2018-09-05T10:30:45.643Z,26.83
2018-09-05T10:33:13.692Z,26.00
2018-09-05T10:35:41.776Z,25.70
2018-09-05T10:38:09.860Z,25.20
2018-09-05T10:40:37.942Z,25.10
2018-09-05T10:43:05.997Z,25.90
2018-09-05T10:45:34.117Z,25.60
2018-09-05T10:48:02.277Z,24.07
2018-09-05T10:50:30.361Z,26.30
2018-09-05T10:53:30.742Z,25.00
2018-09-05T10:55:58.811Z,24.60
2018-09-05T10:58:26.893Z,26.40
2018-09-05T11:00:54.994Z,25.67
2018-09-05T11:03:23.104Z,27.10
2018-09-05T11:05:51.253Z,26.63
2018-09-05T11:08:19.360Z,26.60
2018-09-05T11:10:47.462Z,26.03
2018-09-05T11:13:15.523Z,27.37
2018-09-05T11:15:43.640Z,25.57
2018-09-05T11:18:11.667Z,27.50
2018-09-05T11:20:39.758Z,28.03
2018-09-05T11:23:07.849Z,26.60
2018-09-05T11:25:35.941Z,25.57
2018-09-05T11:28:03.997Z,25.70
2018-09-05T11:30:32.068Z,25.80
2018-09-05T11:33:00.249Z,26.30
2018-09-05T11:35:28.303Z,26.67
2018-09-05T11:37:56.397Z,26.47
2018-09-05T11:40:24.485Z,25.43
2018-09-05T11:42:52.691Z,25.90
2018-09-05T11:45:20.794Z,28.60
2018-09-05T11:47:48.934Z,26.80
2018-09-05T11:50:16.974Z,27.60
2018-09-05T11:52:45.217Z,27.77
2018-09-05T11:55:13.247Z,26.33
2018-09-05T11:57:41.366Z,26.00
2018-09-05T12:00:09.441Z,26.60
2018-09-05T12:02:37.529Z,26.10
2018-09-05T12:05:05.605Z,25.40
2018-09-05T12:07:33.610Z,25.60
2018-09-05T12:10:01.734Z,25.30
2018-09-05T12:12:29.837Z,26.17
2018-09-05T12:14:57.967Z,25.90
2018-09-05T12:17:26.033Z,24.87
2018-09-05T12:19:54.139Z,26.00
2018-09-05T12:22:22.432Z,26.37
2018-09-05T12:24:50.475Z,26.20
2018-09-05T12:27:18.627Z,26.23
2018-09-05T12:29:46.662Z,26.40
2018-09-05T12:32:14.756Z,25.50
2018-09-05T12:34:42.810Z,27.07
2018-09-05T12:37:10.899Z,27.60
2018-09-05T12:39:38.976Z,25.90
2018-09-05T12:42:07.041Z,27.70
2018-09-05T12:44:35.102Z,27.60
2018-09-05T12:47:03.244Z,27.60
2018-09-05T12:49:31.411Z,27.13
2018-09-05T12:51:59.507Z,25.77
2018-09-05T12:54:27.688Z,25.33
2018-09-05T12:56:56.673Z,26.70
2018-09-05T12:59:24.799Z,28.10
2018-09-05T13:01:52.991Z,28.40
2018-09-05T13:04:21.176Z,26.97
2018-09-05T13:06:49.349Z,27.60
2018-09-05T13:09:17.435Z,28.10
2018-09-05T13:11:45.471Z,27.20
2018-09-05T13:14:13.648Z,27.33
2018-09-05T13:16:41.860Z,26.50
2018-09-05T13:19:10.073Z,26.03
2018-09-05T13:21:38.164Z,26.07
2018-09-05T13:24:06.207Z,25.83
2018-09-05T13:26:34.336Z,25.50
2018-09-05T13:29:02.474Z,26.50
2018-09-05T13:31:30.633Z,26.13
2018-09-05T13:33:58.724Z,26.23
2018-09-05T13:36:26.828Z,26.10
2018-09-05T13:38:54.952Z,26.70
2018-09-05T13:41:23.024Z,25.80
2018-09-05T13:43:51.125Z,26.27
2018-09-05T13:46:19.246Z,25.67
2018-09-05T13:48:47.406Z,25.20
2018-09-05T13:51:15.552Z,25.80
2018-09-05T13:53:43.712Z,28.93
2018-09-05T13:56:11.803Z,28.47
2018-09-05T13:58:39.841Z,26.23
2018-09-05T14:01:07.921Z,26.80
2018-09-05T14:03:35.996Z,25.97
2018-09-05T14:06:04.059Z,26.30
2018-09-05T14:08:32.173Z,26.67
2018-09-05T14:11:00.357Z,24.80
2018-09-05T14:13:28.518Z,24.93
2018-09-05T14:15:56.686Z,26.50
2018-09-05T14:18:25.022Z,26.50
2018-09-05T14:20:53.225Z,24.83
2018-09-05T14:23:21.444Z,24.70
2018-09-05T14:25:49.652Z,26.30
2018-09-05T14:28:18.660Z,25.93
2018-09-05T14:30:46.811Z,24.80
2018-09-05T14:33:15.053Z,25.23
2018-09-05T14:35:43.746Z,24.97
2018-09-05T14:38:11.967Z,24.90
2018-09-05T14:40:40.167Z,26.40
2018-09-05T14:43:09.094Z,26.03
2018-09-05T14:45:37.491Z,25.57
2018-09-05T14:48:05.555Z,26.37
2018-09-05T14:50:33.714Z,25.83
2018-09-05T14:53:02.141Z,26.90
2018-09-05T14:55:30.461Z,25.30
2018-09-05T14:57:58.953Z,25.43
2018-09-05T15:00:27.245Z,26.63
2018-09-05T15:02:55.380Z,28.30
2018-09-05T15:05:23.537Z,28.10
2018-09-05T15:07:52.306Z,26.87
2018-09-05T15:10:20.489Z,25.50
2018-09-05T15:12:48.821Z,25.90
2018-09-05T15:15:18.057Z,25.90
2018-09-05T15:17:46.339Z,26.70
2018-09-05T15:20:14.494Z,26.30
2018-09-05T15:22:42.851Z,25.97
2018-09-05T15:25:10.988Z,26.20
2018-09-05T15:27:39.177Z,25.83
2018-09-05T15:30:08.165Z,27.40
2018-09-05T15:32:36.511Z,26.10
2018-09-05T15:35:04.705Z,26.30
2018-09-05T15:37:32.966Z,26.10
2018-09-05T15:40:01.153Z,25.37
2018-09-05T15:42:29.410Z,27.40
2018-09-05T15:44:57.595Z,26.20
2018-09-05T15:47:25.795Z,25.17
2018-09-05T15:49:54.029Z,25.63
2018-09-05T15:52:22.128Z,26.03
2018-09-05T15:54:50.530Z,30.17
2018-09-05T15:57:18.697Z,28.53
2018-09-05T15:59:46.872Z,25.80
2018-09-05T16:02:15.191Z,25.97
2018-09-05T16:04:43.298Z,26.13
2018-09-05T16:07:11.512Z,25.00
2018-09-05T16:09:39.648Z,26.57
2018-09-05T16:12:07.853Z,26.00
2018-09-05T16:14:36.099Z,25.70
2018-09-05T16:17:04.332Z,25.70
2018-09-05T16:19:32.512Z,27.10
2018-09-05T16:22:00.608Z,26.63
2018-09-05T16:24:28.813Z,26.93
2018-09-05T16:26:57.120Z,26.93
2018-09-05T16:29:25.299Z,26.57
2018-09-05T16:31:53.516Z,28.27
2018-09-05T16:34:21.760Z,26.80
2018-09-05T16:36:49.907Z,26.10
2018-09-05T16:39:18.038Z,26.53
2018-09-05T16:41:46.289Z,27.93
2018-09-05T16:44:14.502Z,25.50
2018-09-05T16:46:45.953Z,25.53
2018-09-05T16:49:14.282Z,25.63
2018-09-05T16:51:42.371Z,27.03
2018-09-05T16:54:10.741Z,25.70
2018-09-05T16:56:38.847Z,27.50
2018-09-05T16:59:07.050Z,26.93
2018-09-05T17:01:35.541Z,27.83
2018-09-05T17:04:03.670Z,26.03
2018-09-05T17:06:31.779Z,26.00
2018-09-05T17:09:00.044Z,25.23
2018-09-05T17:11:28.277Z,25.73
2018-09-05T17:13:56.426Z,28.00
2018-09-05T17:16:24.634Z,27.67
2018-09-05T17:18:52.776Z,25.20
2018-09-05T17:21:21.023Z,27.20
2018-09-05T17:23:49.237Z,26.40
2018-09-05T17:26:17.376Z,25.90
2018-09-05T17:28:45.578Z,26.80
2018-09-05T17:31:13.779Z,26.63
2018-09-05T17:33:41.893Z,26.77
2018-09-05T17:36:10.282Z,26.63
2018-09-05T17:38:38.534Z,25.33
2018-09-05T17:41:06.779Z,27.10
2018-09-05T17:43:35.425Z,25.97
2018-09-05T17:46:03.833Z,26.43
2018-09-05T17:48:32.016Z,26.87
2018-09-05T17:51:00.353Z,27.30
2018-09-05T17:53:28.567Z,26.30
2018-09-05T17:55:56.833Z,28.67
2018-09-05T17:58:24.952Z,28.50
2018-09-05T18:00:53.349Z,27.47
2018-09-05T18:03:22.126Z,27.13
2018-09-05T18:05:50.204Z,26.17
2018-09-05T18:08:18.486Z,27.40
2018-09-05T18:10:46.644Z,26.33
2018-09-05T18:13:14.838Z,26.80
2018-09-05T18:15:43.032Z,26.80
2018-09-05T18:18:11.229Z,25.10
2018-09-05T18:20:39.506Z,26.40
2018-09-05T18:23:07.794Z,27.47
2018-09-05T18:25:36.192Z,27.10
2018-09-05T18:28:04.697Z,27.67
2018-09-05T18:30:32.978Z,26.60
2018-09-05T18:33:01.394Z,27.30
2018-09-05T18:35:29.506Z,26.00
2018-09-05T18:37:57.650Z,24.97
2018-09-05T18:40:25.861Z,27.10
2018-09-05T18:42:54.029Z,27.80
2018-09-05T18:45:22.865Z,26.73
2018-09-05T18:47:51.387Z,28.30
2018-09-05T18:50:19.818Z,26.40
2018-09-05T18:52:48.275Z,27.10
2018-09-05T18:55:17.431Z,26.87
2018-09-05T18:57:48.301Z,28.17
2018-09-05T19:00:16.425Z,28.20
2018-09-05T19:02:44.649Z,27.40
2018-09-05T19:05:12.781Z,29.10
2018-09-05T19:07:40.960Z,27.40
2018-09-05T19:10:09.073Z,26.97
2018-09-05T19:12:37.162Z,27.33
2018-09-05T19:15:06.235Z,26.60
2018-09-05T19:17:34.379Z,26.37
2018-09-05T19:20:02.573Z,29.40
2018-09-05T19:22:30.746Z,28.33
2018-09-05T19:24:58.785Z,27.13
2018-09-05T19:27:26.978Z,27.30
2018-09-05T19:29:55.198Z,28.50
2018-09-05T19:32:23.516Z,27.70
2018-09-05T19:34:52.717Z,27.67
2018-09-05T19:37:20.858Z,26.33
2018-09-05T19:39:49.046Z,30.13
2018-09-05T19:42:17.515Z,31.20
2018-09-05T19:44:46.690Z,33.10
2018-09-05T19:47:15.021Z,30.13
2018-09-05T19:49:43.461Z,27.03
2018-09-05T19:52:11.682Z,27.90
2018-09-05T19:54:39.894Z,27.03
2018-09-05T19:57:08.065Z,26.23
2018-09-05T19:59:36.260Z,27.20
2018-09-05T20:02:04.358Z,28.03
2018-09-05T20:04:32.532Z,26.53
2018-09-05T20:07:00.686Z,27.10
2018-09-05T20:09:28.826Z,26.73
2018-09-05T20:11:56.961Z,26.60
2018-09-05T20:14:25.192Z,28.10
2018-09-05T20:16:53.351Z,26.50
2018-09-05T20:19:21.449Z,26.93
2018-09-05T20:21:49.495Z,27.57
2018-09-05T20:24:17.579Z,26.07
2018-09-05T20:26:45.669Z,26.87
2018-09-05T20:29:13.780Z,28.00
2018-09-05T20:31:41.985Z,27.50
2018-09-05T20:34:10.143Z,27.90
2018-09-05T20:36:38.228Z,27.73
2018-09-05T20:39:08.596Z,27.50
2018-09-05T20:41:36.882Z,27.30
2018-09-05T20:44:05.067Z,27.20
2018-09-05T20:46:33.245Z,26.00
2018-09-05T20:49:01.447Z,26.40
2018-09-05T20:51:29.900Z,28.13
2018-09-05T20:53:58.216Z,27.30
2018-09-05T20:56:26.647Z,26.87
2018-09-05T20:58:54.886Z,26.77
2018-09-05T21:01:23.043Z,26.83
2018-09-05T21:03:51.235Z,26.20
2018-09-05T21:06:19.389Z,25.27
2018-09-05T21:08:47.688Z,26.87
2018-09-05T21:11:15.905Z,25.10
2018-09-05T21:13:44.170Z,25.27
2018-09-05T21:16:12.512Z,27.40
2018-09-05T21:18:41.057Z,25.17
2018-09-05T21:21:09.815Z,26.77
2018-09-05T21:23:41.620Z,25.60
2018-09-05T21:26:09.807Z,26.67
2018-09-05T21:28:37.883Z,24.87
2018-09-05T21:31:06.248Z,24.90
2018-09-05T21:33:34.368Z,24.83
2018-09-05T21:36:02.462Z,24.90
2018-09-05T21:38:30.543Z,25.33
2018-09-05T21:40:58.824Z,25.60
2018-09-05T21:43:26.925Z,25.93
2018-09-05T21:45:55.025Z,25.37
2018-09-05T21:48:23.256Z,23.93
2018-09-05T21:50:51.209Z,24.60
2018-09-05T21:53:19.331Z,25.40
2018-09-05T21:55:47.474Z,25.40
2018-09-05T21:58:15.653Z,25.33
2018-09-05T22:00:43.932Z,24.10
2018-09-05T22:03:12.061Z,26.73
2018-09-05T22:05:40.165Z,24.10
2018-09-05T22:08:08.309Z,24.30
2018-09-05T22:10:36.479Z,25.00
2018-09-05T22:13:04.660Z,24.17
2018-09-05T22:15:36.399Z,25.40
2018-09-05T22:18:04.476Z,25.03
2018-09-05T22:20:32.630Z,24.27
2018-09-05T22:23:00.718Z,23.50
2018-09-05T22:25:28.776Z,25.80
2018-09-05T22:27:56.894Z,24.77
2018-09-05T22:30:24.998Z,23.90
2018-09-05T22:32:53.104Z,24.10
2018-09-05T22:35:21.189Z,25.30
2018-09-05T22:37:49.313Z,25.10
2018-09-05T22:40:17.396Z,24.37
2018-09-05T22:42:55.591Z,25.37
2018-09-05T22:45:35.352Z,24.63
2018-09-05T22:51:26.096Z,24.53
2018-09-05T22:54:13.986Z,23.80
2018-09-05T22:57:04.544Z,22.93
2018-09-05T23:00:16.934Z,23.93
2018-09-05T23:02:57.107Z,24.20
2018-09-05T23:05:44.576Z,24.60
2018-09-05T23:08:46.909Z,26.83
2018-09-05T23:11:28.203Z,24.17
2018-09-05T23:14:07.850Z,24.13
2018-09-05T23:18:53.514Z,24.93
2018-09-05T23:21:23.061Z,23.57
2018-09-05T23:23:54.584Z,23.63
2018-09-05T23:26:22.682Z,22.23
2018-09-05T23:28:50.761Z,23.13
2018-09-05T23:31:19.008Z,23.23
2018-09-05T23:33:47.143Z,23.10
2018-09-05T23:36:15.225Z,23.40
2018-09-05T23:38:43.306Z,23.03
2018-09-05T23:41:11.468Z,23.27
2018-09-05T23:43:39.722Z,23.80
2018-09-05T23:46:07.789Z,23.90
2018-09-05T23:48:36.022Z,23.73
2018-09-05T23:52:07.701Z,25.27
2018-09-05T23:54:35.720Z,24.53
2018-09-05T23:57:03.808Z,24.17
2018-09-05T23:59:31.984Z,23.60
